Time;durP1;ratioP1;P1;durP2;ratioP2;P2;SDS_P1;SDS_P2;PMS_P1;PMS_P2;Temp;Humidity;BMP_temperature;BMP_pressure;BME280_temperature;BME280_humidity;BME280_pressure;Samples;Min_cycle;Max_cycle;Signal;HPM_P1;HPM_P2
2022/01/09 00:01:55;;;;;;;;;;;;;;;;;;5053881;28;19924;-71
2022/01/09 00:04:21;;;;;;;;;;;;;;;;;;5054171;28;19928;-70
2022/01/09 00:06:47;;;;;;;;;;;;;;;;;;5053688;28;19963;-69
2022/01/09 00:09:13;;;;;;;;;;;;;;;;;;5053750;28;19920;-70
2022/01/09 00:11:39;;;;;;;;;;;;;;;;;;5053695;28;19921;-70
2022/01/09 00:14:05;;;;;;;;;;;;;;;;;;5054645;28;19920;-71
2022/01/09 00:16:31;;;;;;;;;;;;;;;;;;5053183;28;19928;-70
2022/01/09 00:18:57;;;;;;;;;;;;;;;;;;5053024;28;19974;-72
2022/01/09 00:21:23;;;;;;;;;;;;;;;;;;5068417;28;19921;-74
2022/01/09 00:23:49;;;;;;;;;;;;;;;;;;5053498;28;19928;-73
2022/01/09 00:26:15;;;;;;;;;;;;;;;;;;5053171;28;20066;-72
2022/01/09 00:28:41;;;;;;;;;;;;;;;;;;5053213;28;19927;-78
2022/01/09 00:31:07;;;;;;;;;;;;;;;;;;5053328;28;20007;-72
2022/01/09 00:33:33;;;;;;;;;;;;;;;;;;5052615;28;19928;-72
2022/01/09 00:35:59;;;;;;;;;;;;;;;;;;5063934;28;19920;-69
2022/01/09 00:38:25;;;;;;;;;;;;;;;;;;5072579;28;19925;-73
2022/01/09 00:40:51;;;;;;;;;;;;;;;;;;5073109;28;19982;-76
2022/01/09 00:43:17;;;;;;;;;;;;;;;;;;5073053;28;19989;-79
2022/01/09 00:45:43;;;;;;;;;;;;;;;;;;5067103;28;19921;-75
2022/01/09 00:48:09;;;;;;;;;;;;;;;;;;5052919;28;19928;-76
2022/01/09 00:50:36;;;;;;;;;;;;;;;;;;5052384;28;20335;-79
2022/01/09 00:53:02;;;;;;;;;;;;;;;;;;5053075;28;19974;-77
2022/01/09 00:55:28;;;;;;;;;;;;;;;;;;5052458;28;19920;-76
2022/01/09 00:57:54;;;;;;;;;;;;;;;;;;5053841;28;19947;-76
2022/01/09 01:00:20;;;;;;;;;;;;;;;;;;5052745;28;19943;-75
2022/01/09 01:02:46;;;;;;;;;;;;;;;;;;5052843;28;19921;-76
2022/01/09 01:05:12;;;;;;;;;;;;;;;;;;5052611;28;19921;-79
2022/01/09 01:07:38;;;;;;;;;;;;;;;;;;5085109;28;19921;-77
2022/01/09 01:10:04;;;;;;;;;;;;;;;;;;5052683;28;20287;-79
2022/01/09 01:12:30;;;;;;;;;;;;;;;;;;5052453;28;19920;-76
2022/01/09 01:14:56;;;;;;;;;;;;;;;;;;5052743;28;19921;-80
2022/01/09 01:17:22;;;;;;;;;;;;;;;;;;5065570;28;19929;-77
2022/01/09 01:19:48;;;;;;;;;;;;;;;;;;5072512;28;20295;-75
2022/01/09 01:22:14;;;;;;;;;;;;;;;;;;5072448;28;20320;-75
2022/01/09 01:24:40;;;;;;;;;;;;;;;;;;5105322;28;20063;-77
2022/01/09 01:27:06;;;;;;;;;;;;;;;;;;5070833;28;20368;-79
2022/01/09 01:29:32;;;;;;;;;;;;;;;;;;5084314;28;20050;-75
2022/01/09 01:31:58;;;;;;;;;;;;;;;;;;5058353;28;19974;-76
2022/01/09 01:34:24;;;;;;;;;;;;;;;;;;5058864;28;19925;-77
2022/01/09 01:36:50;;;;;;;;;;;;;;;;;;5059424;28;20008;-76
2022/01/09 01:39:16;;;;;;;;;;;;;;;;;;5079274;28;20332;-79
2022/01/09 01:41:42;;;;;;;;;;;;;;;;;;5078488;28;19944;-79
2022/01/09 01:44:09;;;;;;;;;;;;;;;;;;5079090;28;19920;-79
2022/01/09 01:46:35;;;;;;;;;;;;;;;;;;5078628;28;19924;-80
2022/01/09 01:49:01;;;;;;;;;;;;;;;;;;5075798;28;19920;-80
2022/01/09 01:51:27;;;;;;;;;;;;;;;;;;5079083;28;19966;-81
2022/01/09 01:53:55;;;;;;;;;;;;;;;;;;5079207;28;19920;-80
2022/01/09 01:56:22;;;;;;;;;;;;;;;;;;5079129;28;19921;-80
2022/01/09 01:58:48;;;;;;;;;;;;;;;;;;5080741;28;19924;-79
2022/01/09 02:01:14;;;;;;;;;;;;;;;;;;5089940;28;19976;-79
2022/01/09 02:03:40;;;;;;;;;;;;;;;;;;5089993;28;19931;-78
2022/01/09 02:06:06;;;;;;;;;;;;;;;;;;5079254;28;20356;-77
2022/01/09 02:08:32;;;;;;;;;;;;;;;;;;5079446;28;19927;-76
2022/01/09 02:10:58;;;;;;;;;;;;;;;;;;5079007;28;19920;-77
2022/01/09 02:13:24;;;;;;;;;;;;;;;;;;5078791;28;19943;-76
2022/01/09 02:15:56;;;;;;;;;;;;;;;;;;5078249;28;19924;-75
2022/01/09 02:18:22;;;;;;;;;;;;;;;;;;5078707;28;19999;-74
2022/01/09 02:20:48;;;;;;;;;;;;;;;;;;5095271;28;19970;-74
2022/01/09 02:23:15;;;;;;;;;;;;;;;;;;5097102;28;19935;-73
2022/01/09 02:25:41;;;;;;;;;;;;;;;;;;5098594;28;19924;-74
2022/01/09 02:28:07;;;;;;;;;;;;;;;;;;5098777;28;20031;-77
2022/01/09 02:30:33;;;;;;;;;;;;;;;;;;5096608;28;19927;-76
2022/01/09 02:32:59;;;;;;;;;;;;;;;;;;5098722;28;20007;-81
2022/01/09 02:35:25;;;;;;;;;;;;;;;;;;5098841;28;19920;-87
2022/01/09 02:37:51;;;;;;;;;;;;;;;;;;5098730;28;20027;-89
2022/01/09 02:40:16;;;;;;;;;;;;;;;;;;5092616;28;19928;-88
2022/01/09 02:42:42;;;;;;;;;;;;;;;;;;5075575;28;20027;-87
2022/01/09 02:45:08;;;;;;;;;;;;;;;;;;5091230;28;19920;-86
2022/01/09 02:47:36;;;;;;;;;;;;;;;;;;5074953;28;19927;-83
2022/01/09 02:50:11;;;;;;;;;;;;;;;;;;5108099;28;19921;-82
2022/01/09 02:52:49;;;;;;;;;;;;;;;;;;5095048;28;19926;-84
2022/01/09 02:55:15;;;;;;;;;;;;;;;;;;5078339;28;19927;-87
2022/01/09 02:57:41;;;;;;;;;;;;;;;;;;5107693;28;19972;-88
2022/01/09 03:00:07;;;;;;;;;;;;;;;;;;5078283;28;19928;-87
2022/01/09 03:02:33;;;;;;;;;;;;;;;;;;5094745;28;19920;-88
2022/01/09 03:04:58;;;;;;;;;;;;;;;;;;5095129;28;19927;-88
2022/01/09 03:07:24;;;;;;;;;;;;;;;;;;5095242;28;19963;-84
2022/01/09 03:09:50;;;;;;;;;;;;;;;;;;5094917;28;19973;-87
2022/01/09 03:12:17;;;;;;;;;;;;;;;;;;5096275;28;19920;-87
2022/01/09 03:14:43;;;;;;;;;;;;;;;;;;5098714;28;19982;-87
2022/01/09 03:17:09;;;;;;;;;;;;;;;;;;5095363;28;19920;-87
2022/01/09 03:19:35;;;;;;;;;;;;;;;;;;5094942;28;19927;-83
2022/01/09 03:22:01;;;;;;;;;;;;;;;;;;5083826;28;19927;-81
2022/01/09 03:24:27;;;;;;;;;;;;;;;;;;5074583;28;19962;-77
2022/01/09 03:26:52;;;;;;;;;;;;;;;;;;5074164;28;19920;-76
2022/01/09 03:29:18;;;;;;;;;;;;;;;;;;5074437;28;19990;-76
2022/01/09 03:31:44;;;;;;;;;;;;;;;;;;5075228;28;20307;-77
2022/01/09 03:34:10;;;;;;;;;;;;;;;;;;5074508;28;19927;-79
2022/01/09 03:36:36;;;;;;;;;;;;;;;;;;5074172;28;19928;-76
2022/01/09 03:39:02;;;;;;;;;;;;;;;;;;5089858;28;19923;-76
2022/01/09 03:41:28;;;;;;;;;;;;;;;;;;5074193;28;20015;-75
2022/01/09 03:43:54;;;;;;;;;;;;;;;;;;5074668;28;19931;-73
2022/01/09 03:46:20;;;;;;;;;;;;;;;;;;5084313;28;19965;-73
2022/01/09 03:48:46;;;;;;;;;;;;;;;;;;5094010;28;19971;-72
2022/01/09 03:51:12;;;;;;;;;;;;;;;;;;5094272;28;19920;-73
2022/01/09 03:53:39;;;;;;;;;;;;;;;;;;5093491;28;19927;-71
2022/01/09 03:56:05;;;;;;;;;;;;;;;;;;5091775;28;20372;-70
2022/01/09 03:58:31;;;;;;;;;;;;;;;;;;5094022;28;19927;-71
2022/01/09 04:00:57;;;;;;;;;;;;;;;;;;5092812;28;20003;-70
2022/01/09 04:03:23;;;;;;;;;;;;;;;;;;5094221;28;20007;-70
2022/01/09 04:05:48;;;;;;;;;;;;;;;;;;5093659;28;19920;-69
2022/01/09 04:08:14;;;;;;;;;;;;;;;;;;5074931;28;19994;-70
2022/01/09 04:10:42;;;;;;;;;;;;;;;;;;5073585;28;19920;-70
2022/01/09 04:13:08;;;;;;;;;;;;;;;;;;5073103;28;20015;-72
2022/01/09 04:15:34;;;;;;;;;;;;;;;;;;5073635;28;20395;-73
2022/01/09 04:18:00;;;;;;;;;;;;;;;;;;5086001;28;19974;-71
2022/01/09 04:20:26;;;;;;;;;;;;;;;;;;5093731;28;20006;-70
2022/01/09 04:22:52;;;;;;;;;;;;;;;;;;5093119;28;20437;-73
2022/01/09 04:25:18;;;;;;;;;;;;;;;;;;5093524;28;19924;-70
2022/01/09 04:27:44;;;;;;;;;;;;;;;;;;5092668;28;19930;-72
2022/01/09 04:30:10;;;;;;;;;;;;;;;;;;5092826;28;19928;-70
2022/01/09 04:32:36;;;;;;;;;;;;;;;;;;5093669;28;20398;-72
2022/01/09 04:35:02;;;;;;;;;;;;;;;;;;5092949;28;20363;-70
2022/01/09 04:37:28;;;;;;;;;;;;;;;;;;5092727;28;19927;-70
2022/01/09 04:39:55;;;;;;;;;;;;;;;;;;5105372;28;20322;-70
2022/01/09 04:42:27;;;;;;;;;;;;;;;;;;5072998;28;19920;-81
2022/01/09 04:44:53;;;;;;;;;;;;;;;;;;5072668;28;19970;-74
2022/01/09 04:47:19;;;;;;;;;;;;;;;;;;5073195;28;19920;-74
2022/01/09 04:49:47;;;;;;;;;;;;;;;;;;5073959;28;19966;-74
2022/01/09 04:52:17;;;;;;;;;;;;;;;;;;5072402;28;20296;-73
2022/01/09 04:54:43;;;;;;;;;;;;;;;;;;5072741;28;19920;-73
2022/01/09 04:57:09;;;;;;;;;;;;;;;;;;5072561;28;19926;-75
2022/01/09 04:59:35;;;;;;;;;;;;;;;;;;5087041;28;20352;-73
2022/01/09 05:02:01;;;;;;;;;;;;;;;;;;5071563;28;20373;-71
2022/01/09 05:04:27;;;;;;;;;;;;;;;;;;5072718;28;20356;-72
2022/01/09 05:06:53;;;;;;;;;;;;;;;;;;5071981;28;19920;-82
2022/01/09 05:09:19;;;;;;;;;;;;;;;;;;5073538;28;19924;-72
2022/01/09 05:11:45;;;;;;;;;;;;;;;;;;5072753;28;19926;-75
2022/01/09 05:14:11;;;;;;;;;;;;;;;;;;5071059;28;20025;-75
2022/01/09 05:16:41;;;;;;;;;;;;;;;;;;5072663;28;19921;-73
2022/01/09 05:19:16;;;;;;;;;;;;;;;;;;5073276;28;19928;-72
2022/01/09 05:21:42;;;;;;;;;;;;;;;;;;5072565;28;19970;-72
2022/01/09 05:24:08;;;;;;;;;;;;;;;;;;5072165;28;19920;-72
2022/01/09 05:26:34;;;;;;;;;;;;;;;;;;5071463;28;19932;-70
2022/01/09 05:29:00;;;;;;;;;;;;;;;;;;5071935;28;20368;-72
2022/01/09 05:31:26;;;;;;;;;;;;;;;;;;5073576;28;19960;-71
2022/01/09 05:33:52;;;;;;;;;;;;;;;;;;5072402;28;19970;-72
2022/01/09 05:36:18;;;;;;;;;;;;;;;;;;5072063;28;19920;-70
2022/01/09 05:38:44;;;;;;;;;;;;;;;;;;5072268;28;19920;-71
2022/01/09 05:41:10;;;;;;;;;;;;;;;;;;5074238;28;20046;-72
2022/01/09 05:43:36;;;;;;;;;;;;;;;;;;5073452;28;19927;-72
2022/01/09 05:46:02;;;;;;;;;;;;;;;;;;5084595;28;19965;-73
2022/01/09 05:48:28;;;;;;;;;;;;;;;;;;5092403;28;20014;-73
2022/01/09 05:50:54;;;;;;;;;;;;;;;;;;5092341;28;19924;-71
2022/01/09 05:53:20;;;;;;;;;;;;;;;;;;5091986;28;19924;-72
2022/01/09 05:55:46;;;;;;;;;;;;;;;;;;5084845;28;20003;-72
2022/01/09 05:58:12;;;;;;;;;;;;;;;;;;5071901;28;19934;-75
2022/01/09 06:00:38;;;;;;;;;;;;;;;;;;5072371;28;19920;-71
2022/01/09 06:03:03;;;;;;;;;;;;;;;;;;5070632;28;19978;-71
2022/01/09 06:05:29;;;;;;;;;;;;;;;;;;5073172;28;19921;-72
2022/01/09 06:07:55;;;;;;;;;;;;;;;;;;5071921;28;19924;-73
2022/01/09 06:10:21;;;;;;;;;;;;;;;;;;5083793;28;19930;-72
2022/01/09 06:12:47;;;;;;;;;;;;;;;;;;5092462;28;20010;-71
2022/01/09 06:15:13;;;;;;;;;;;;;;;;;;5091909;28;20031;-70
2022/01/09 06:17:39;;;;;;;;;;;;;;;;;;5095481;28;19920;-82
2022/01/09 06:20:05;;;;;;;;;;;;;;;;;;5095041;28;19924;-74
2022/01/09 06:22:31;;;;;;;;;;;;;;;;;;5097121;28;19920;-86
2022/01/09 06:24:57;;;;;;;;;;;;;;;;;;5087161;28;20032;-82
2022/01/09 06:27:23;;;;;;;;;;;;;;;;;;5076092;28;20438;-80
2022/01/09 06:29:49;;;;;;;;;;;;;;;;;;5074491;28;19921;-86
2022/01/09 06:32:15;;;;;;;;;;;;;;;;;;5075183;28;20007;-84
2022/01/09 06:34:41;;;;;;;;;;;;;;;;;;5076580;28;19924;-74
2022/01/09 06:37:07;;;;;;;;;;;;;;;;;;5070889;28;19929;-80
2022/01/09 06:39:33;;;;;;;;;;;;;;;;;;5077692;28;20326;-77
2022/01/09 06:41:59;;;;;;;;;;;;;;;;;;5094678;28;19930;-76
2022/01/09 06:44:25;;;;;;;;;;;;;;;;;;5095282;28;19965;-75
2022/01/09 06:46:51;;;;;;;;;;;;;;;;;;5094684;28;20016;-72
2022/01/09 06:49:17;;;;;;;;;;;;;;;;;;5085631;28;19921;-76
2022/01/09 06:51:43;;;;;;;;;;;;;;;;;;5074063;28;19920;-80
2022/01/09 06:54:08;;;;;;;;;;;;;;;;;;5075129;28;19920;-79
2022/01/09 06:56:34;;;;;;;;;;;;;;;;;;5075442;28;19925;-77
2022/01/09 06:59:00;;;;;;;;;;;;;;;;;;5092223;28;19920;-78
2022/01/09 07:01:26;;;;;;;;;;;;;;;;;;5074744;28;19927;-82
2022/01/09 07:03:52;;;;;;;;;;;;;;;;;;5091002;28;19920;-75
2022/01/09 07:06:18;;;;;;;;;;;;;;;;;;5074736;28;19977;-77
2022/01/09 07:08:44;;;;;;;;;;;;;;;;;;5075117;28;19924;-76
2022/01/09 07:11:10;;;;;;;;;;;;;;;;;;5066781;28;19927;-79
2022/01/09 07:13:36;;;;;;;;;;;;;;;;;;5075062;28;19927;-71
2022/01/09 07:16:02;;;;;;;;;;;;;;;;;;5073115;28;19921;-71
2022/01/09 07:18:28;;;;;;;;;;;;;;;;;;5074350;28;19920;-83
2022/01/09 07:20:54;;;;;;;;;;;;;;;;;;5074823;28;20303;-78
2022/01/09 07:23:20;;;;;;;;;;;;;;;;;;5074495;28;19920;-71
2022/01/09 07:25:46;;;;;;;;;;;;;;;;;;5074993;28;20265;-67
2022/01/09 07:28:12;;;;;;;;;;;;;;;;;;5073964;28;20299;-84
2022/01/09 07:30:38;;;;;;;;;;;;;;;;;;5075091;28;19927;-83
2022/01/09 07:33:04;;;;;;;;;;;;;;;;;;5080019;28;19931;-83
2022/01/09 07:35:30;;;;;;;;;;;;;;;;;;5074006;28;19924;-74
2022/01/09 07:37:56;;;;;;;;;;;;;;;;;;5075436;28;19966;-84
2022/01/09 07:40:22;;;;;;;;;;;;;;;;;;5073338;28;19920;-85
2022/01/09 07:42:48;;;;;;;;;;;;;;;;;;5071630;28;19955;-80
2022/01/09 07:45:14;;;;;;;;;;;;;;;;;;5073445;28;20023;-85
2022/01/09 07:47:40;;;;;;;;;;;;;;;;;;5073394;28;19921;-76
2022/01/09 07:50:06;;;;;;;;;;;;;;;;;;5073701;28;20364;-85
2022/01/09 07:52:36;;;;;;;;;;;;;;;;;;5070747;28;19924;-85
2022/01/09 07:55:02;;;;;;;;;;;;;;;;;;5073727;28;19927;-78
2022/01/09 07:57:28;;;;;;;;;;;;;;;;;;5072854;28;19920;-83
2022/01/09 07:59:56;;;;;;;;;;;;;;;;;;5072547;28;19931;-79
2022/01/09 08:02:22;;;;;;;;;;;;;;;;;;5087888;28;19920;-70
2022/01/09 08:04:48;;;;;;;;;;;;;;;;;;5070619;28;20007;-85
2022/01/09 08:07:14;;;;;;;;;;;;;;;;;;5097901;28;19950;-79
2022/01/09 08:09:42;;;;;;;;;;;;;;;;;;5084957;28;19964;-74
2022/01/09 08:12:10;;;;;;;;;;;;;;;;;;5076740;28;19920;-86
2022/01/09 08:14:36;;;;;;;;;;;;;;;;;;5061176;28;19920;-82
2022/01/09 08:17:02;;;;;;;;;;;;;;;;;;5050770;28;19921;-82
2022/01/09 08:19:30;;;;;;;;;;;;;;;;;;5054360;28;19921;-78
2022/01/09 08:21:56;;;;;;;;;;;;;;;;;;5085717;28;19921;-86
2022/01/09 08:24:22;;;;;;;;;;;;;;;;;;5055419;28;19971;-82
2022/01/09 08:26:48;;;;;;;;;;;;;;;;;;5052380;28;19921;-77
2022/01/09 08:29:15;;;;;;;;;;;;;;;;;;5059854;28;19978;-78
2022/01/09 08:31:41;;;;;;;;;;;;;;;;;;5061561;28;19921;-83
2022/01/09 08:34:07;;;;;;;;;;;;;;;;;;5066919;28;19974;-80
2022/01/09 08:36:33;;;;;;;;;;;;;;;;;;5058194;28;19924;-83
2022/01/09 08:38:59;;;;;;;;;;;;;;;;;;5069425;28;19924;-83
2022/01/09 08:41:25;;;;;;;;;;;;;;;;;;5069413;28;20377;-83
2022/01/09 08:43:51;;;;;;;;;;;;;;;;;;5086408;28;19925;-85
2022/01/09 08:46:17;;;;;;;;;;;;;;;;;;5071391;28;19920;-87
2022/01/09 08:48:43;;;;;;;;;;;;;;;;;;5069767;28;19924;-82
2022/01/09 08:51:09;;;;;;;;;;;;;;;;;;5070378;28;19927;-77
2022/01/09 08:53:37;;;;;;;;;;;;;;;;;;5070846;28;19979;-72
2022/01/09 08:56:03;;;;;;;;;;;;;;;;;;5069273;28;19920;-71
2022/01/09 08:58:29;;;;;;;;;;;;;;;;;;5071174;28;20336;-70
2022/01/09 09:00:55;;;;;;;;;;;;;;;;;;5070854;28;20320;-79
2022/01/09 09:03:21;;;;;;;;;;;;;;;;;;5070058;28;19924;-70
2022/01/09 09:05:47;;;;;;;;;;;;;;;;;;5068041;28;19920;-76
2022/01/09 09:08:13;;;;;;;;;;;;;;;;;;5069636;28;19972;-70
2022/01/09 09:10:39;;;;;;;;;;;;;;;;;;5070223;28;20020;-76
2022/01/09 09:13:05;;;;;;;;;;;;;;;;;;5069794;28;20015;-79
2022/01/09 09:15:31;;;;;;;;;;;;;;;;;;5068701;28;19921;-79
2022/01/09 09:17:57;;;;;;;;;;;;;;;;;;5069922;28;19921;-79
2022/01/09 09:20:23;;;;;;;;;;;;;;;;;;5070917;28;19925;-70
2022/01/09 09:22:49;;;;;;;;;;;;;;;;;;5070253;28;19928;-72
2022/01/09 09:25:15;;;;;;;;;;;;;;;;;;5070650;28;20326;-70
2022/01/09 09:27:41;;;;;;;;;;;;;;;;;;5068325;28;19925;-73
2022/01/09 09:30:07;;;;;;;;;;;;;;;;;;5068977;28;19927;-75
2022/01/09 09:32:33;;;;;;;;;;;;;;;;;;5070199;28;19920;-74
2022/01/09 09:34:59;;;;;;;;;;;;;;;;;;5070464;28;19924;-75
2022/01/09 09:37:28;;;;;;;;;;;;;;;;;;5068992;28;20319;-74
2022/01/09 09:39:54;;;;;;;;;;;;;;;;;;5053230;28;19924;-71
2022/01/09 09:42:20;;;;;;;;;;;;;;;;;;5050307;28;19920;-73
2022/01/09 09:44:46;;;;;;;;;;;;;;;;;;5049816;28;19925;-71
2022/01/09 09:47:12;;;;;;;;;;;;;;;;;;5050426;28;19928;-66
2022/01/09 09:49:38;;;;;;;;;;;;;;;;;;5059933;28;20015;-72
2022/01/09 09:52:04;;;;;;;;;;;;;;;;;;5072587;28;19925;-72
2022/01/09 09:54:33;;;;;;;;;;;;;;;;;;5074146;28;20437;-71
2022/01/09 09:56:59;;;;;;;;;;;;;;;;;;5073624;28;19928;-73
2022/01/09 09:59:25;;;;;;;;;;;;;;;;;;5062390;28;19921;-68
2022/01/09 10:01:51;;;;;;;;;;;;;;;;;;5052753;28;19920;-73
2022/01/09 10:04:17;;;;;;;;;;;;;;;;;;5058356;28;19927;-72
2022/01/09 10:06:43;;;;;;;;;;;;;;;;;;5053608;28;19921;-70
2022/01/09 10:09:09;;;;;;;;;;;;;;;;;;5059815;28;19928;-71
2022/01/09 10:11:35;;;;;;;;;;;;;;;;;;5073578;28;19920;-72
2022/01/09 10:14:01;;;;;;;;;;;;;;;;;;5073868;28;20014;-72
2022/01/09 10:16:27;;;;;;;;;;;;;;;;;;5073807;28;19982;-69
2022/01/09 10:18:53;;;;;;;;;;;;;;;;;;5088901;28;19935;-71
2022/01/09 10:21:19;;;;;;;;;;;;;;;;;;5072352;28;19927;-69
2022/01/09 10:23:45;;;;;;;;;;;;;;;;;;5067649;28;20003;-72
2022/01/09 10:26:11;;;;;;;;;;;;;;;;;;5058624;28;19974;-71
2022/01/09 10:28:37;;;;;;;;;;;;;;;;;;5053981;28;19967;-70
2022/01/09 10:31:03;;;;;;;;;;;;;;;;;;5056212;28;19925;-68
2022/01/09 10:33:36;;;;;;;;;;;;;;;;;;5073682;28;19944;-70
2022/01/09 10:36:04;;;;;;;;;;;;;;;;;;5073650;28;19921;-71
2022/01/09 10:38:30;;;;;;;;;;;;;;;;;;5073653;28;20010;-71
2022/01/09 10:40:57;;;;;;;;;;;;;;;;;;5072955;28;20791;-67
2022/01/09 10:43:23;;;;;;;;;;;;;;;;;;5071602;28;19920;-69
2022/01/09 10:45:50;;;;;;;;;;;;;;;;;;5072968;28;20237;-70
2022/01/09 10:48:16;;;;;;;;;;;;;;;;;;5071502;28;19932;-70
2022/01/09 10:50:42;;;;;;;;;;;;;;;;;;5072712;28;19921;-71
2022/01/09 10:53:08;;;;;;;;;;;;;;;;;;5063769;28;20166;-70
2022/01/09 10:55:34;;;;;;;;;;;;;;;;;;5052966;28;19924;-70
2022/01/09 10:58:00;;;;;;;;;;;;;;;;;;5052616;28;20335;-70
2022/01/09 11:00:26;;;;;;;;;;;;;;;;;;5072789;28;20372;-70
2022/01/09 11:02:52;;;;;;;;;;;;;;;;;;5071778;28;20327;-70
2022/01/09 11:05:18;;;;;;;;;;;;;;;;;;5072867;28;19967;-70
2022/01/09 11:07:44;;;;;;;;;;;;;;;;;;5072293;28;19927;-73
2022/01/09 11:10:10;;;;;;;;;;;;;;;;;;5058253;28;19983;-71
2022/01/09 11:12:46;;;;;;;;;;;;;;;;;;5072424;28;20375;-70
2022/01/09 11:15:12;;;;;;;;;;;;;;;;;;5055655;28;20278;-70
2022/01/09 11:17:39;;;;;;;;;;;;;;;;;;5068194;28;19921;-67
2022/01/09 11:20:05;;;;;;;;;;;;;;;;;;5052156;28;20019;-71
2022/01/09 11:22:31;;;;;;;;;;;;;;;;;;5067800;28;19967;-70
2022/01/09 11:24:57;;;;;;;;;;;;;;;;;;5062119;28;19920;-70
2022/01/09 11:27:23;;;;;;;;;;;;;;;;;;5072664;28;19999;-69
2022/01/09 11:29:49;;;;;;;;;;;;;;;;;;5072158;28;19920;-69
2022/01/09 11:32:16;;;;;;;;;;;;;;;;;;5072519;28;19921;-71
2022/01/09 11:34:42;;;;;;;;;;;;;;;;;;5068382;28;19927;-71
2022/01/09 11:37:08;;;;;;;;;;;;;;;;;;5067828;28;19924;-71
2022/01/09 11:39:37;;;;;;;;;;;;;;;;;;5072249;28;19920;-70
2022/01/09 11:42:03;;;;;;;;;;;;;;;;;;5105216;28;19924;-71
2022/01/09 11:44:29;;;;;;;;;;;;;;;;;;5072270;28;19920;-70
2022/01/09 11:46:54;;;;;;;;;;;;;;;;;;5069566;28;19994;-69
2022/01/09 11:49:21;;;;;;;;;;;;;;;;;;5070636;28;19921;-69
2022/01/09 11:51:47;;;;;;;;;;;;;;;;;;5071404;28;19920;-69
2022/01/09 11:54:15;;;;;;;;;;;;;;;;;;5072087;28;19931;-71
2022/01/09 11:56:41;;;;;;;;;;;;;;;;;;5070407;28;19943;-71
2022/01/09 11:59:07;;;;;;;;;;;;;;;;;;5070753;28;19931;-72
2022/01/09 12:01:33;;;;;;;;;;;;;;;;;;5067744;28;19928;-68
2022/01/09 12:03:59;;;;;;;;;;;;;;;;;;5070855;28;19931;-71
2022/01/09 12:06:25;;;;;;;;;;;;;;;;;;5070317;28;19924;-71
2022/01/09 12:08:51;;;;;;;;;;;;;;;;;;5071351;28;20291;-69
2022/01/09 12:11:17;;;;;;;;;;;;;;;;;;5071672;28;19920;-70
2022/01/09 12:13:43;;;;;;;;;;;;;;;;;;5070263;28;19965;-72
2022/01/09 12:16:12;;;;;;;;;;;;;;;;;;5069953;28;20376;-70
2022/01/09 12:18:37;;;;;;;;;;;;;;;;;;5060807;28;20015;-69
2022/01/09 12:21:03;;;;;;;;;;;;;;;;;;5068424;28;20368;-67
2022/01/09 12:23:29;;;;;;;;;;;;;;;;;;5070625;28;20360;-69
2022/01/09 12:25:55;;;;;;;;;;;;;;;;;;5070941;28;19920;-71
2022/01/09 12:28:23;;;;;;;;;;;;;;;;;;5070785;28;19924;-66
2022/01/09 12:30:49;;;;;;;;;;;;;;;;;;5069649;28;19920;-70
2022/01/09 12:33:16;;;;;;;;;;;;;;;;;;5070743;28;19979;-68
2022/01/09 12:35:46;;;;;;;;;;;;;;;;;;5070947;28;20426;-69
2022/01/09 12:38:11;;;;;;;;;;;;;;;;;;5070884;28;19924;-70
2022/01/09 12:40:39;;;;;;;;;;;;;;;;;;5053233;28;20279;-70
2022/01/09 12:43:05;;;;;;;;;;;;;;;;;;5069557;28;19928;-70
2022/01/09 12:45:31;;;;;;;;;;;;;;;;;;5086132;28;19920;-69
2022/01/09 12:47:57;;;;;;;;;;;;;;;;;;5080174;28;19927;-68
2022/01/09 12:50:23;;;;;;;;;;;;;;;;;;5090721;28;19920;-65
2022/01/09 12:52:49;;;;;;;;;;;;;;;;;;5082755;28;20399;-66
2022/01/09 12:55:17;;;;;;;;;;;;;;;;;;5050636;28;19921;-68
2022/01/09 12:57:43;;;;;;;;;;;;;;;;;;5073076;28;19926;-79
2022/01/09 13:00:09;;;;;;;;;;;;;;;;;;5089093;28;19920;-68
2022/01/09 13:02:37;;;;;;;;;;;;;;;;;;5082204;28;19921;-68
2022/01/09 13:05:03;;;;;;;;;;;;;;;;;;5077875;28;20364;-68
2022/01/09 13:07:29;;;;;;;;;;;;;;;;;;5050548;28;19921;-68
2022/01/09 13:09:55;;;;;;;;;;;;;;;;;;5059294;28;19924;-72
2022/01/09 13:12:22;;;;;;;;;;;;;;;;;;5079365;28;19990;-80
2022/01/09 13:14:48;;;;;;;;;;;;;;;;;;5068380;28;19920;-82
2022/01/09 13:17:16;;;;;;;;;;;;;;;;;;5034897;28;19977;-74
2022/01/09 13:19:42;;;;;;;;;;;;;;;;;;5050472;28;19999;-77
2022/01/09 13:24:25;;;;;;;21.73;4.38;;;;;;;;;;5051821;28;20117;-79
2022/01/09 13:26:55;;;;;;;19.27;3.85;;;;;;;;;;5037055;28;20057;-75
2022/01/09 13:29:23;;;;;;;24.38;4.10;;;;;;;;;;5026322;28;20053;-78
2022/01/09 13:31:51;;;;;;;22.75;4.60;;;;;;;;;;5034612;28;20146;-76
2022/01/09 13:34:28;;;;;;;22.40;4.57;;;;;;;;;;5043314;28;20041;-77
2022/01/09 13:36:54;;;;;;;;;;;;;;;;;;5042407;28;20052;-74
2022/01/09 13:39:22;;;;;;;17.88;4.20;;;;;;;;;;5043144;28;20005;-75
2022/01/09 13:41:50;;;;;;;19.65;3.92;;;;;;;;;;5006804;28;20133;-78
2022/01/09 13:44:20;;;;;;;21.65;4.07;;;;;;;;;;5043290;28;20037;-74
2022/01/09 13:46:58;;;;;;;21.13;3.92;;;;;;;;;;5005504;27;20083;-74
2022/01/09 13:49:24;;;;;;;24.08;3.92;;;;;;;;;;5022845;28;20109;-76
2022/01/09 13:51:51;;;;;;;;;;;;;;;;;;5039372;28;20465;-76
2022/01/09 13:54:18;;;;;;;22.45;4.00;;;;;;;;;;5023134;28;19940;-73
2022/01/09 13:56:45;;;;;;;18.77;3.90;;;;;;;;;;5023480;28;20045;-73
2022/01/09 13:59:11;;;;;;;;;;;;;;;;;;5024942;28;20049;-77
2022/01/09 14:01:37;;;;;;;23.63;4.47;;;;;;;;;;5027755;28;19922;-72
2022/01/09 14:04:11;;;;;;;18.10;3.55;;;;;;;;;;5024102;28;20049;-71
2022/01/09 14:06:37;;;;;;;16.77;3.40;;;;;;;;;;5013045;28;20049;-74
2022/01/09 14:09:04;;;;;;;20.65;3.88;;;;;;;;;;5043103;28;20041;-72
2022/01/09 14:11:30;;;;;;;19.15;4.15;;;;;;;;;;5036664;28;20052;-75
2022/01/09 14:13:56;;;;;;;18.80;4.85;;;;;;;;;;5037553;28;20044;-70
2022/01/09 14:16:22;;;;;;;16.17;3.67;;;;;;;;;;5036722;28;20049;-72
2022/01/09 14:18:57;;;;;;;16.73;3.45;;;;;;;;;;5035666;28;20045;-71
2022/01/09 14:21:23;;;;;;;15.95;3.45;;;;;;;;;;5013408;28;20093;-72
2022/01/09 14:23:49;;;;;;;15.25;3.90;;;;;;;;;;5023232;28;20058;-72
2022/01/09 14:26:17;;;;;;;15.63;3.53;;;;;;;;;;5032582;28;20075;-75
2022/01/09 14:28:44;;;;;;;15.43;4.22;;;;;;;;;;5031193;28;20399;-72
2022/01/09 14:31:14;;;;;;;12.98;3.40;;;;;;;;;;5036600;27;20045;-71
2022/01/09 14:33:50;;;;;;;22.92;4.45;;;;;;;;;;5037762;28;20057;-72
2022/01/09 14:36:20;;;;;;;14.70;4.13;;;;;;;;;;5009906;28;20055;-70
2022/01/09 14:38:49;;;;;;;16.85;3.85;;;;;;;;;;5006803;28;20485;-71
2022/01/09 14:41:15;;;;;;;15.50;3.97;;;;;;;;;;5026917;28;20061;-72
2022/01/09 14:43:42;;;;;;;20.35;4.78;;;;;;;;;;5009092;28;20549;-70
2022/01/09 14:46:08;;;;;;;16.08;3.85;;;;;;;;;;5025358;28;20513;-72
2022/01/09 14:48:35;;;;;;;19.52;4.43;;;;;;;;;;5018680;28;20037;-71
2022/01/09 14:51:03;;;;;;;18.50;4.10;;;;;;;;;;5021342;28;20049;-72
2022/01/09 14:53:30;;;;;;;17.60;3.85;;;;;;;;;;5028629;28;20076;-70
2022/01/09 14:55:59;;;;;;;16.63;3.88;;;;;;;;;;5007761;28;20054;-71
2022/01/09 15:03:47;;;;;;;20.30;4.23;;;;;;;;;;5127636;27;1524705;-73
2022/01/09 15:06:16;;;;;;;16.83;3.30;;;;;;;;;;5152869;27;20097;-87
2022/01/09 15:08:42;;;;;;;13.85;3.83;;;;;;;;;;5130010;27;20074;-85
2022/01/09 15:11:08;;;;;;;21.85;4.00;;;;;;;;;;5143041;27;20038;-83
2022/01/09 15:13:35;;;;;;;18.02;3.47;;;;;;;;;;5158709;27;20061;-87
2022/01/09 15:16:01;;;;;;;20.17;4.18;;;;;;;;;;5159607;27;20057;-86
2022/01/09 15:18:27;;;;;;;20.98;4.10;;;;;;;;;;5151518;27;20043;-85
2022/01/09 15:20:53;;;;;;;17.85;4.43;;;;;;;;;;5174714;27;20050;-86
2022/01/09 15:23:19;;;;;;;18.98;4.20;;;;;;;;;;5146121;27;20117;-83
2022/01/09 15:25:47;;;;;;;23.33;3.65;;;;;;;;;;5158858;27;20046;-84
2022/01/09 15:28:13;;;;;;;18.15;3.65;;;;;;;;;;5128889;27;20078;-84
2022/01/09 15:30:42;;;;;;;16.75;3.70;;;;;;;;;;5168819;27;20121;-86
2022/01/09 15:33:08;;;;;;;20.48;3.83;;;;;;;;;;5150969;27;20051;-86
2022/01/09 15:35:34;;;;;;;17.02;3.47;;;;;;;;;;5144283;27;20116;-86
2022/01/09 15:38:01;;;;;;;21.10;4.18;;;;;;;;;;5164513;27;20054;-87
2022/01/09 15:40:27;;;;;;;20.83;4.47;;;;;;;;;;5170115;27;20079;-88
2022/01/09 15:42:53;;;;;;;22.48;4.78;;;;;;;;;;5147882;27;20047;-88
2022/01/09 15:45:19;;;;;;;20.42;4.35;;;;;;;;;;5154877;27;20047;-86
2022/01/09 15:47:45;;;;;;;;;;;;;;;;;;5154621;27;20058;-81
2022/01/09 15:50:12;;;;;;;31.23;5.72;;;;;;;;;;5173304;27;19926;-82
2022/01/09 15:52:38;;;;;;;19.70;4.82;;;;;;;;;;5171514;27;20042;-88
2022/01/09 15:55:04;;;;;;;22.85;4.65;;;;;;;;;;5153111;27;20043;-87
2022/01/09 15:57:30;;;;;;;;;;;;;;;;;;5154836;27;20418;-82
2022/01/09 15:59:57;;;;;;;22.20;5.18;;;;;;;;;;5152140;27;19920;-89
2022/01/09 16:02:23;;;;;;;;;;;;;;;;;;5171320;27;20533;-85
2022/01/09 16:04:49;;;;;;;21.83;5.68;;;;;;;;;;5152185;27;19919;-82
2022/01/09 16:07:15;;;;;;;21.85;5.05;;;;;;;;;;5145562;27;20053;-83
2022/01/09 16:09:41;;;;;;;21.55;4.57;;;;;;;;;;5169172;27;20054;-84
2022/01/09 16:12:10;;;;;;;25.80;5.03;;;;;;;;;;5151674;27;20041;-82
2022/01/09 16:14:40;;;;;;;25.73;5.13;;;;;;;;;;5134210;27;20404;-85
2022/01/09 16:17:06;;;;;;;20.88;4.40;;;;;;;;;;5135653;27;20451;-82
2022/01/09 16:19:32;;;;;;;22.13;4.72;;;;;;;;;;5135882;27;20046;-83
2022/01/09 16:21:58;;;;;;;21.20;4.50;;;;;;;;;;5154648;27;20035;-81